< < Back
Terminal Aerodrome Forecast


Current Version              Previous Versions:   1  2  3  4  5  6  7  8  9  

Terminal Aerodrome Forecast

774
FTUS42 KTAE 181100
TAFABY
TAF
KABY 181120Z 1812/1912 00000KT P6SM BKN250
     FM181600 34004KT P6SM FEW120 BKN250
     FM190300 00000KT P6SM SCT100 BKN250=

Latest METAR

159
SAUS70 KWBC 181200 RRI
MTRABY
METAR KABY 181153Z 00000KT 10SM CLR 04/04 A3020 RMK AO2 SLP227 T00440039
10067 20044 53007


USA.gov is the U.S. government's official web portal to all federal, state and local government web resources and services.